Rotterdam — PDGS — position and weather

sailwx.info

Track history (hours):
 
Tides and Currents Weather Stations Pressure Air Temp Water Temp Dewpoint Dewpoint Depression Visibility Wind Speed Wind Dir Waves Ship Positions

Rotterdam

Operator: Holland America Line

Last reported at 2019-Jan-21 18:00 UTC. Time now 2019-Jan-24 06:20 UTC.
Position N 12°42' W 065°30'.

Length 228 m; beam 29 m.

Type: Ship. MMSI: 24616700.

Wind from 080 at 15 knots

Barometer 1015.7 mb
Air temperature 33.0 ° C
Visibility: greater than 10.8 NM
Dewpoint 11.5 ° C
Water temperature 28.0 ° C

Date/timePositionNaut miles runAvg speedWind from/ knotsBaromVisibWave heightAir tempDewpointWater temp
2019-Jan-21 18:00N 12°42' W 065°30'9713.8 080 / 151015.710.8 33.011.528.0
2019-Jan-21 11:00N 13°06' W 063°54'178 7.6 070 / 171017.810.8 25.015.026.8
2019-Jan-20 11:30N 14°01' W 060°60'2 3.1
2019-Jan-20 11:00N 14°02' W 061°01'510.6
2019-Jan-20 10:30N 14°04' W 061°06'2 3.3
2019-Jan-20 10:00N 14°06' W 061°06'1226.6 100 / 171017.810.8 25.012.228.0
2019-Jan-20 09:33N 14°11' W 061°17'115.2
2019-Jan-20 09:30N 14°11' W 061°17'1015.2
2019-Jan-20 08:50N 14°21' W 061°21'1016.0
2019-Jan-20 08:11N 14°30' W 061°25'314.4
2019-Jan-20 08:00N 14°33' W 061°26'714.7
2019-Jan-20 07:30N 14°40' W 061°29'814.9
2019-Jan-20 06:59N 14°47' W 061°32'179 7.5
2019-Jan-19 06:58N 17°32' W 062°43'814.7
2019-Jan-19 06:26N 17°36' W 062°51'714.4
2019-Jan-19 05:58N 17°38' W 062°57'714.5
2019-Jan-19 05:29N 17°41' W 063°04'812.7
2019-Jan-19 04:51N 17°45' W 063°11'2014.2
2019-Jan-19 03:28N 17°54' W 063°29'1015.9
2019-Jan-19 02:50N 17°56' W 063°40'713.7
2019-Jan-19 02:21N 17°57' W 063°47'5614.1
2019-Jan-18 22:21N 18°11' W 064°44'514.3
2019-Jan-18 22:00N 18°12' W 064°49'712.9
2019-Jan-18 21:30N 18°16' W 064°55'2 0.2
2019-Jan-18 10:50N 18°17' W 064°57'2510.3
2019-Jan-18 08:23N 18°36' W 065°14'  
2019-Jan-15 11:00N 22°42' W 078°30'24510.7 040 / 101017.810.8 23.211.626.3
2019-Jan-14 12:00N 24°18' W 082°36'163 3.4 350 / 171019.810.8 22.013.424.0
2019-Jan-12 12:00N 23°00' W 085°12'   130 / 281015.810.8 24.0 9.627.0
Track history (hours):
 
Tides and Currents Weather Stations Pressure Air Temp Water Temp Dewpoint Dewpoint Depression Visibility Wind Speed Wind Dir Waves Ship Positions

Rotterdam

Operator: Holland America Line

Last reported at 2019-Jan-21 18:00 UTC. Time now 2019-Jan-24 06:20 UTC.
Position N 12°42' W 065°30'.

Length 228 m; beam 29 m.

Type: Ship. MMSI: 24616700.

Wind from 080 at 15 knots

Barometer 1015.7 mb
Air temperature 33.0 ° C
Visibility: greater than 10.8 NM
Dewpoint 11.5 ° C
Water temperature 28.0 ° C

Date/timePositionNaut miles runAvg speedWind from/ knotsBaromVisibWave heightAir tempDewpointWater temp
2019-Jan-21 18:00N 12°42' W 065°30'9713.8 080 / 151015.710.8 33.011.528.0
2019-Jan-21 11:00N 13°06' W 063°54'178 7.6 070 / 171017.810.8 25.015.026.8
2019-Jan-20 11:30N 14°01' W 060°60'2 3.1
2019-Jan-20 11:00N 14°02' W 061°01'510.6
2019-Jan-20 10:30N 14°04' W 061°06'2 3.3
2019-Jan-20 10:00N 14°06' W 061°06'1226.6 100 / 171017.810.8 25.012.228.0
2019-Jan-20 09:33N 14°11' W 061°17'115.2
2019-Jan-20 09:30N 14°11' W 061°17'1015.2
2019-Jan-20 08:50N 14°21' W 061°21'1016.0
2019-Jan-20 08:11N 14°30' W 061°25'314.4
2019-Jan-20 08:00N 14°33' W 061°26'714.7
2019-Jan-20 07:30N 14°40' W 061°29'814.9
2019-Jan-20 06:59N 14°47' W 061°32'179 7.5
2019-Jan-19 06:58N 17°32' W 062°43'814.7
2019-Jan-19 06:26N 17°36' W 062°51'714.4
2019-Jan-19 05:58N 17°38' W 062°57'714.5
2019-Jan-19 05:29N 17°41' W 063°04'812.7
2019-Jan-19 04:51N 17°45' W 063°11'2014.2
2019-Jan-19 03:28N 17°54' W 063°29'1015.9
2019-Jan-19 02:50N 17°56' W 063°40'713.7
2019-Jan-19 02:21N 17°57' W 063°47'5614.1
2019-Jan-18 22:21N 18°11' W 064°44'514.3
2019-Jan-18 22:00N 18°12' W 064°49'712.9
2019-Jan-18 21:30N 18°16' W 064°55'2 0.2
2019-Jan-18 10:50N 18°17' W 064°57'2510.3
2019-Jan-18 08:23N 18°36' W 065°14'  
2019-Jan-15 11:00N 22°42' W 078°30'24510.7 040 / 101017.810.8 23.211.626.3
2019-Jan-14 12:00N 24°18' W 082°36'163 3.4 350 / 171019.810.8 22.013.424.0
2019-Jan-12 12:00N 23°00' W 085°12'   130 / 281015.810.8 24.0 9.627.0

Dump ship's entire track history